TAF KRWF
KRWF 072334Z 0800/0824 VRB03KT P6SM SCT200 FM080800 VRB03KT 2SM BR BKN015 FM081700 15009KT P6SM SCT120=
METAR KRWF
WC KRWF
WS KRWF
WV KRWF